createdAt,value
2022-10-13T00:13:53.674Z,8.5
2022-10-13T00:28:25.000Z,8
2022-10-13T00:42:56.371Z,8.1
2022-10-13T00:57:29.219Z,8
2022-10-13T01:12:02.914Z,8.2
2022-10-13T01:26:35.414Z,8.6
2022-10-13T01:41:13.670Z,8
2022-10-13T01:55:48.506Z,7.9
2022-10-13T02:10:16.889Z,8.1
2022-10-13T02:24:49.427Z,8.3
2022-10-13T02:39:22.849Z,8.3
2022-10-13T02:54:01.459Z,8.5
2022-10-13T03:08:37.166Z,8.7
2022-10-13T03:23:06.640Z,8.7
2022-10-13T03:37:37.754Z,8.4
2022-10-13T03:52:10.258Z,8.3
2022-10-13T04:06:43.570Z,8.4
2022-10-13T04:21:16.116Z,8.3
2022-10-13T04:35:48.698Z,8.4
2022-10-13T04:50:22.068Z,8.7
2022-10-13T05:04:54.626Z,9
2022-10-13T05:19:33.344Z,8.7
2022-10-13T05:34:08.151Z,8.7
2022-10-13T05:48:38.025Z,9
2022-10-13T06:03:11.833Z,9.2
2022-10-13T06:17:45.001Z,9.1
2022-10-13T06:32:19.519Z,9.8
2022-10-13T06:46:49.953Z,9.7
2022-10-13T07:01:23.243Z,9.7
2022-10-13T07:15:56.506Z,9.8
2022-10-13T07:30:30.079Z,10.2
2022-10-13T07:45:04.303Z,10.5
2022-10-13T07:59:38.679Z,10.9
2022-10-13T08:14:13.023Z,11.5
2022-10-13T08:29:24.677Z,12
2022-10-13T08:59:48.094Z,13.1
2022-10-13T09:14:22.205Z,13.6
2022-10-13T09:28:58.005Z,13.5
2022-10-13T09:43:35.016Z,12.8
2022-10-13T09:58:03.075Z,13
2022-10-13T10:12:36.987Z,13.1
2022-10-13T10:27:10.494Z,13.3
2022-10-13T10:41:45.536Z,13.3
2022-10-13T10:56:22.529Z,13
2022-10-13T11:10:58.274Z,13.3
2022-10-13T11:25:33.379Z,13
2022-10-13T11:40:03.957Z,13.4
2022-10-13T11:54:37.665Z,12.9
2022-10-13T12:09:10.719Z,13.2
2022-10-13T12:23:43.171Z,12.7
2022-10-13T12:38:16.348Z,12.9
2022-10-13T12:52:49.041Z,13.1
2022-10-13T13:07:20.493Z,14.2
2022-10-13T13:21:53.971Z,15
2022-10-13T13:36:25.090Z,15
2022-10-13T13:50:57.830Z,14.8
2022-10-13T14:05:30.652Z,15.4
2022-10-13T14:20:04.600Z,15.5
2022-10-13T14:34:37.558Z,15.6
2022-10-13T14:49:10.793Z,15.2
2022-10-13T15:03:43.646Z,15.2
2022-10-13T15:18:16.704Z,15.2
2022-10-13T15:32:55.043Z,15.1
2022-10-13T15:47:30.188Z,15
2022-10-13T16:02:00.185Z,15.3
2022-10-13T16:16:32.677Z,15.2
2022-10-13T16:31:05.419Z,15.2
2022-10-13T16:46:00.849Z,14.9
2022-10-13T17:00:21.805Z,14.7
2022-10-13T17:14:53.882Z,14.4
2022-10-13T17:29:26.168Z,14.5
2022-10-13T17:43:58.101Z,14.4
2022-10-13T17:58:30.890Z,14.4
2022-10-13T18:13:04.512Z,14.3
2022-10-13T18:27:37.469Z,14.4
2022-10-13T18:42:10.531Z,14.3
2022-10-13T18:56:43.370Z,14.3
2022-10-13T19:11:16.012Z,14
2022-10-13T19:25:48.634Z,14
2022-10-13T19:40:22.463Z,14
2022-10-13T19:54:55.370Z,13.9
2022-10-13T20:09:29.392Z,14
2022-10-13T20:24:01.789Z,14.1
2022-10-13T20:38:34.990Z,14.2
2022-10-13T20:53:08.353Z,14.1
2022-10-13T21:07:42.597Z,14.2
2022-10-13T21:22:14.953Z,14.2
2022-10-13T21:36:48.173Z,14
2022-10-13T21:51:20.974Z,13.8
2022-10-13T22:05:53.735Z,13.8
2022-10-13T22:20:23.738Z,13.7
2022-10-13T22:35:02.363Z,13.6
2022-10-13T22:49:43.691Z,13.5
2022-10-13T23:04:09.753Z,13.4
2022-10-13T23:18:45.282Z,13.3
2022-10-13T23:33:21.104Z,13.4
2022-10-13T23:47:50.816Z,13.5
